sensor_id;sensor_type;location;lat;lon;timestamp;temperature;humidity
22418;DHT22;11376;50.932;4.442;2022-11-24T00:02:06;9.50;99.90
22418;DHT22;11376;50.932;4.442;2022-11-24T00:04:31;9.60;99.90
22418;DHT22;11376;50.932;4.442;2022-11-24T00:06:57;9.60;99.90
22418;DHT22;11376;50.932;4.442;2022-11-24T00:09:22;9.60;99.90
22418;DHT22;11376;50.932;4.442;2022-11-24T00:11:48;9.70;99.90
22418;DHT22;11376;50.932;4.442;2022-11-24T00:14:13;9.70;99.90
22418;DHT22;11376;50.932;4.442;2022-11-24T00:16:39;9.70;99.90
22418;DHT22;11376;50.932;4.442;2022-11-24T00:19:06;9.80;99.90
22418;DHT22;11376;50.932;4.442;2022-11-24T00:21:34;9.80;99.90
22418;DHT22;11376;50.932;4.442;2022-11-24T00:24:00;9.80;99.90
22418;DHT22;11376;50.932;4.442;2022-11-24T00:26:31;9.80;99.90
22418;DHT22;11376;50.932;4.442;2022-11-24T00:29:00;9.80;99.90
22418;DHT22;11376;50.932;4.442;2022-11-24T00:31:32;9.80;99.90
22418;DHT22;11376;50.932;4.442;2022-11-24T00:34:00;9.90;99.90
22418;DHT22;11376;50.932;4.442;2022-11-24T00:36:29;9.80;99.90
22418;DHT22;11376;50.932;4.442;2022-11-24T00:38:57;9.80;99.90
22418;DHT22;11376;50.932;4.442;2022-11-24T00:41:24;9.80;99.90
22418;DHT22;11376;50.932;4.442;2022-11-24T00:43:50;9.80;99.90
22418;DHT22;11376;50.932;4.442;2022-11-24T00:46:16;9.80;99.90
22418;DHT22;11376;50.932;4.442;2022-11-24T00:48:42;9.80;99.90
22418;DHT22;11376;50.932;4.442;2022-11-24T00:51:09;9.80;99.90
22418;DHT22;11376;50.932;4.442;2022-11-24T00:53:35;9.80;99.90
22418;DHT22;11376;50.932;4.442;2022-11-24T00:56:01;9.80;99.90
22418;DHT22;11376;50.932;4.442;2022-11-24T00:58:30;9.80;99.90
22418;DHT22;11376;50.932;4.442;2022-11-24T01:01:01;9.80;99.90
22418;DHT22;11376;50.932;4.442;2022-11-24T01:03:27;9.80;99.90
22418;DHT22;11376;50.932;4.442;2022-11-24T01:05:52;9.90;99.90
22418;DHT22;11376;50.932;4.442;2022-11-24T01:08:18;9.90;99.90
22418;DHT22;11376;50.932;4.442;2022-11-24T01:10:43;9.90;99.90
22418;DHT22;11376;50.932;4.442;2022-11-24T01:13:09;9.80;99.90
22418;DHT22;11376;50.932;4.442;2022-11-24T01:15:36;9.80;99.90
22418;DHT22;11376;50.932;4.442;2022-11-24T01:18:02;9.90;99.90
22418;DHT22;11376;50.932;4.442;2022-11-24T01:20:28;9.80;99.90
22418;DHT22;11376;50.932;4.442;2022-11-24T01:22:54;9.80;99.90
22418;DHT22;11376;50.932;4.442;2022-11-24T01:25:19;9.70;99.90
22418;DHT22;11376;50.932;4.442;2022-11-24T01:27:45;9.70;99.90
22418;DHT22;11376;50.932;4.442;2022-11-24T01:30:10;9.70;99.90
22418;DHT22;11376;50.932;4.442;2022-11-24T01:32:36;9.70;99.90
22418;DHT22;11376;50.932;4.442;2022-11-24T01:35:03;9.70;99.90
22418;DHT22;11376;50.932;4.442;2022-11-24T01:37:29;9.70;99.90
22418;DHT22;11376;50.932;4.442;2022-11-24T01:39:54;9.70;99.90
22418;DHT22;11376;50.932;4.442;2022-11-24T01:42:20;9.80;99.90
22418;DHT22;11376;50.932;4.442;2022-11-24T01:44:49;9.70;99.90
22418;DHT22;11376;50.932;4.442;2022-11-24T01:47:35;9.70;99.90
22418;DHT22;11376;50.932;4.442;2022-11-24T01:50:03;9.70;99.90
22418;DHT22;11376;50.932;4.442;2022-11-24T01:52:35;9.80;99.90
22418;DHT22;11376;50.932;4.442;2022-11-24T01:55:07;9.70;99.90
22418;DHT22;11376;50.932;4.442;2022-11-24T01:58:09;9.70;99.90
22418;DHT22;11376;50.932;4.442;2022-11-24T02:00:36;9.80;99.90
22418;DHT22;11376;50.932;4.442;2022-11-24T02:03:02;9.80;99.90
22418;DHT22;11376;50.932;4.442;2022-11-24T02:05:56;9.80;99.90
22418;DHT22;11376;50.932;4.442;2022-11-24T02:09:03;9.80;99.90
22418;DHT22;11376;50.932;4.442;2022-11-24T02:11:34;9.80;99.90
22418;DHT22;11376;50.932;4.442;2022-11-24T02:14:04;9.90;99.90
22418;DHT22;11376;50.932;4.442;2022-11-24T02:16:31;9.90;99.90
22418;DHT22;11376;50.932;4.442;2022-11-24T02:18:58;9.90;99.90
22418;DHT22;11376;50.932;4.442;2022-11-24T02:21:24;9.90;99.90
22418;DHT22;11376;50.932;4.442;2022-11-24T02:23:59;9.90;99.90
22418;DHT22;11376;50.932;4.442;2022-11-24T02:26:45;9.90;99.90
22418;DHT22;11376;50.932;4.442;2022-11-24T02:29:12;10.00;99.90
22418;DHT22;11376;50.932;4.442;2022-11-24T02:31:45;10.00;99.90
22418;DHT22;11376;50.932;4.442;2022-11-24T02:34:11;10.00;99.90
22418;DHT22;11376;50.932;4.442;2022-11-24T02:36:37;10.00;99.90
22418;DHT22;11376;50.932;4.442;2022-11-24T02:39:08;10.00;99.90
22418;DHT22;11376;50.932;4.442;2022-11-24T02:41:34;10.00;99.90
22418;DHT22;11376;50.932;4.442;2022-11-24T02:44:00;10.10;99.90
22418;DHT22;11376;50.932;4.442;2022-11-24T02:46:26;10.10;99.90
22418;DHT22;11376;50.932;4.442;2022-11-24T02:48:52;10.10;99.90
22418;DHT22;11376;50.932;4.442;2022-11-24T02:51:17;10.00;99.90
22418;DHT22;11376;50.932;4.442;2022-11-24T02:53:43;9.90;99.90
22418;DHT22;11376;50.932;4.442;2022-11-24T02:56:09;9.80;99.90
22418;DHT22;11376;50.932;4.442;2022-11-24T02:58:34;9.70;99.90
22418;DHT22;11376;50.932;4.442;2022-11-24T03:01:00;9.70;99.90
22418;DHT22;11376;50.932;4.442;2022-11-24T03:03:26;9.60;99.90
22418;DHT22;11376;50.932;4.442;2022-11-24T03:05:51;9.60;99.90
22418;DHT22;11376;50.932;4.442;2022-11-24T03:08:17;9.60;99.90
22418;DHT22;11376;50.932;4.442;2022-11-24T03:10:43;9.50;99.90
22418;DHT22;11376;50.932;4.442;2022-11-24T03:13:09;9.50;99.90
22418;DHT22;11376;50.932;4.442;2022-11-24T03:15:34;9.50;99.90
22418;DHT22;11376;50.932;4.442;2022-11-24T03:18:00;9.50;99.90
22418;DHT22;11376;50.932;4.442;2022-11-24T03:20:26;9.50;99.90
22418;DHT22;11376;50.932;4.442;2022-11-24T03:22:52;9.50;99.90
22418;DHT22;11376;50.932;4.442;2022-11-24T03:25:18;9.50;99.90
22418;DHT22;11376;50.932;4.442;2022-11-24T03:27:44;9.50;99.90
22418;DHT22;11376;50.932;4.442;2022-11-24T03:30:10;9.50;99.90
22418;DHT22;11376;50.932;4.442;2022-11-24T03:32:36;9.50;99.90
22418;DHT22;11376;50.932;4.442;2022-11-24T03:35:02;9.60;99.90
22418;DHT22;11376;50.932;4.442;2022-11-24T03:37:28;9.60;99.90
22418;DHT22;11376;50.932;4.442;2022-11-24T03:39:53;9.60;99.90
22418;DHT22;11376;50.932;4.442;2022-11-24T03:42:19;9.70;99.90
22418;DHT22;11376;50.932;4.442;2022-11-24T03:44:45;9.60;99.90
22418;DHT22;11376;50.932;4.442;2022-11-24T03:47:10;9.60;99.90
22418;DHT22;11376;50.932;4.442;2022-11-24T03:49:36;9.40;99.90
22418;DHT22;11376;50.932;4.442;2022-11-24T03:52:03;9.20;99.90
22418;DHT22;11376;50.932;4.442;2022-11-24T03:54:28;9.10;99.90
22418;DHT22;11376;50.932;4.442;2022-11-24T03:56:54;9.00;99.90
22418;DHT22;11376;50.932;4.442;2022-11-24T03:59:19;9.00;99.90
22418;DHT22;11376;50.932;4.442;2022-11-24T04:01:45;8.90;99.90
22418;DHT22;11376;50.932;4.442;2022-11-24T04:04:11;8.80;99.90
22418;DHT22;11376;50.932;4.442;2022-11-24T04:06:38;8.80;99.90
22418;DHT22;11376;50.932;4.442;2022-11-24T04:09:04;8.80;99.90
22418;DHT22;11376;50.932;4.442;2022-11-24T04:11:30;8.80;99.90
22418;DHT22;11376;50.932;4.442;2022-11-24T04:14:14;8.80;99.90
22418;DHT22;11376;50.932;4.442;2022-11-24T04:16:40;8.80;99.90
22418;DHT22;11376;50.932;4.442;2022-11-24T04:19:06;8.80;99.90
22418;DHT22;11376;50.932;4.442;2022-11-24T04:21:31;8.80;99.90
22418;DHT22;11376;50.932;4.442;2022-11-24T04:23:57;8.90;99.90
22418;DHT22;11376;50.932;4.442;2022-11-24T04:26:23;8.80;99.90
22418;DHT22;11376;50.932;4.442;2022-11-24T04:28:48;8.80;99.90
22418;DHT22;11376;50.932;4.442;2022-11-24T04:31:14;8.80;99.90
22418;DHT22;11376;50.932;4.442;2022-11-24T04:33:39;8.70;99.90
22418;DHT22;11376;50.932;4.442;2022-11-24T04:36:05;8.80;99.90
22418;DHT22;11376;50.932;4.442;2022-11-24T04:38:31;8.80;99.90
22418;DHT22;11376;50.932;4.442;2022-11-24T04:41:00;8.80;99.90
22418;DHT22;11376;50.932;4.442;2022-11-24T04:43:26;8.80;99.90
22418;DHT22;11376;50.932;4.442;2022-11-24T04:45:52;8.80;99.90
22418;DHT22;11376;50.932;4.442;2022-11-24T04:48:17;8.70;99.90
22418;DHT22;11376;50.932;4.442;2022-11-24T04:50:43;8.80;99.90
22418;DHT22;11376;50.932;4.442;2022-11-24T04:53:09;8.80;99.90
22418;DHT22;11376;50.932;4.442;2022-11-24T04:55:38;8.70;99.90
22418;DHT22;11376;50.932;4.442;2022-11-24T04:58:07;8.70;99.90
22418;DHT22;11376;50.932;4.442;2022-11-24T05:00:33;8.70;99.90
22418;DHT22;11376;50.932;4.442;2022-11-24T05:02:58;8.70;99.90
22418;DHT22;11376;50.932;4.442;2022-11-24T05:05:24;8.60;99.90
22418;DHT22;11376;50.932;4.442;2022-11-24T05:07:50;8.60;99.90
22418;DHT22;11376;50.932;4.442;2022-11-24T05:10:15;8.60;99.90
22418;DHT22;11376;50.932;4.442;2022-11-24T05:13:01;8.60;99.90
22418;DHT22;11376;50.932;4.442;2022-11-24T05:15:27;8.60;99.90
22418;DHT22;11376;50.932;4.442;2022-11-24T05:17:53;8.60;99.90
22418;DHT22;11376;50.932;4.442;2022-11-24T05:20:19;8.60;99.90
22418;DHT22;11376;50.932;4.442;2022-11-24T05:22:45;8.60;99.90
22418;DHT22;11376;50.932;4.442;2022-11-24T05:25:11;8.60;99.90
22418;DHT22;11376;50.932;4.442;2022-11-24T05:27:37;8.60;99.90
22418;DHT22;11376;50.932;4.442;2022-11-24T05:30:03;8.60;99.90
22418;DHT22;11376;50.932;4.442;2022-11-24T05:32:29;8.50;99.90
22418;DHT22;11376;50.932;4.442;2022-11-24T05:34:54;8.60;99.90
22418;DHT22;11376;50.932;4.442;2022-11-24T05:37:21;8.50;99.90
22418;DHT22;11376;50.932;4.442;2022-11-24T05:39:46;8.50;99.90
22418;DHT22;11376;50.932;4.442;2022-11-24T05:42:12;8.50;99.90
22418;DHT22;11376;50.932;4.442;2022-11-24T05:44:56;8.50;99.90
22418;DHT22;11376;50.932;4.442;2022-11-24T05:47:22;8.50;99.90
22418;DHT22;11376;50.932;4.442;2022-11-24T05:49:47;8.50;99.90
22418;DHT22;11376;50.932;4.442;2022-11-24T05:52:14;8.40;99.90
22418;DHT22;11376;50.932;4.442;2022-11-24T05:54:39;8.40;99.90
22418;DHT22;11376;50.932;4.442;2022-11-24T05:57:05;8.40;99.90
22418;DHT22;11376;50.932;4.442;2022-11-24T05:59:31;8.40;99.90
22418;DHT22;11376;50.932;4.442;2022-11-24T06:01:56;8.30;99.90
22418;DHT22;11376;50.932;4.442;2022-11-24T06:04:22;8.30;99.90
22418;DHT22;11376;50.932;4.442;2022-11-24T06:06:47;8.30;99.90
22418;DHT22;11376;50.932;4.442;2022-11-24T06:09:13;8.30;99.90
22418;DHT22;11376;50.932;4.442;2022-11-24T06:11:39;8.40;99.90
22418;DHT22;11376;50.932;4.442;2022-11-24T06:14:04;8.40;99.90
22418;DHT22;11376;50.932;4.442;2022-11-24T06:16:30;8.40;99.90
22418;DHT22;11376;50.932;4.442;2022-11-24T06:18:55;8.40;99.90
22418;DHT22;11376;50.932;4.442;2022-11-24T06:21:21;8.40;99.90
22418;DHT22;11376;50.932;4.442;2022-11-24T06:23:47;8.40;99.90
22418;DHT22;11376;50.932;4.442;2022-11-24T06:26:13;8.40;99.90
22418;DHT22;11376;50.932;4.442;2022-11-24T06:28:39;8.40;99.90
22418;DHT22;11376;50.932;4.442;2022-11-24T06:31:05;8.30;99.90
22418;DHT22;11376;50.932;4.442;2022-11-24T06:33:32;8.30;99.90
22418;DHT22;11376;50.932;4.442;2022-11-24T06:36:06;8.20;99.90
22418;DHT22;11376;50.932;4.442;2022-11-24T06:38:33;8.20;99.90
22418;DHT22;11376;50.932;4.442;2022-11-24T06:41:00;8.20;99.90
22418;DHT22;11376;50.932;4.442;2022-11-24T06:43:27;8.20;99.90
22418;DHT22;11376;50.932;4.442;2022-11-24T06:45:53;8.20;99.90
22418;DHT22;11376;50.932;4.442;2022-11-24T06:48:19;8.30;99.90
22418;DHT22;11376;50.932;4.442;2022-11-24T06:50:44;8.30;99.90
22418;DHT22;11376;50.932;4.442;2022-11-24T06:53:10;8.20;99.90
22418;DHT22;11376;50.932;4.442;2022-11-24T06:55:37;8.30;99.90
22418;DHT22;11376;50.932;4.442;2022-11-24T06:58:03;8.20;99.90
22418;DHT22;11376;50.932;4.442;2022-11-24T07:00:28;8.20;99.90
22418;DHT22;11376;50.932;4.442;2022-11-24T07:02:59;8.20;99.90
22418;DHT22;11376;50.932;4.442;2022-11-24T07:05:25;8.20;99.90
22418;DHT22;11376;50.932;4.442;2022-11-24T07:07:51;8.20;99.90
22418;DHT22;11376;50.932;4.442;2022-11-24T07:10:18;8.20;99.90
22418;DHT22;11376;50.932;4.442;2022-11-24T07:12:43;8.10;99.90
22418;DHT22;11376;50.932;4.442;2022-11-24T07:15:10;8.10;99.90
22418;DHT22;11376;50.932;4.442;2022-11-24T07:17:37;8.10;99.90
22418;DHT22;11376;50.932;4.442;2022-11-24T07:20:04;8.10;99.90
22418;DHT22;11376;50.932;4.442;2022-11-24T07:22:30;8.10;99.90
22418;DHT22;11376;50.932;4.442;2022-11-24T07:24:56;8.00;99.90
22418;DHT22;11376;50.932;4.442;2022-11-24T07:27:21;8.00;99.90
22418;DHT22;11376;50.932;4.442;2022-11-24T07:29:47;8.00;99.90
22418;DHT22;11376;50.932;4.442;2022-11-24T07:32:12;8.00;99.90
22418;DHT22;11376;50.932;4.442;2022-11-24T07:34:38;8.00;99.90
22418;DHT22;11376;50.932;4.442;2022-11-24T07:37:03;8.00;99.90
22418;DHT22;11376;50.932;4.442;2022-11-24T07:39:29;8.00;99.90
22418;DHT22;11376;50.932;4.442;2022-11-24T07:41:55;8.00;99.90
22418;DHT22;11376;50.932;4.442;2022-11-24T07:44:22;8.00;99.90
22418;DHT22;11376;50.932;4.442;2022-11-24T07:46:47;8.00;99.90
22418;DHT22;11376;50.932;4.442;2022-11-24T07:49:16;8.00;99.90
22418;DHT22;11376;50.932;4.442;2022-11-24T07:51:41;8.00;99.90
22418;DHT22;11376;50.932;4.442;2022-11-24T07:54:12;8.00;99.90
22418;DHT22;11376;50.932;4.442;2022-11-24T07:56:38;8.00;99.90
22418;DHT22;11376;50.932;4.442;2022-11-24T07:59:03;8.10;99.90
22418;DHT22;11376;50.932;4.442;2022-11-24T08:01:29;8.10;99.90
22418;DHT22;11376;50.932;4.442;2022-11-24T08:03:55;8.10;99.90
22418;DHT22;11376;50.932;4.442;2022-11-24T08:06:20;8.10;99.90
22418;DHT22;11376;50.932;4.442;2022-11-24T08:08:46;8.10;99.90
22418;DHT22;11376;50.932;4.442;2022-11-24T08:11:14;8.10;99.90
22418;DHT22;11376;50.932;4.442;2022-11-24T08:13:40;8.10;99.90
22418;DHT22;11376;50.932;4.442;2022-11-24T08:16:08;8.10;99.90
22418;DHT22;11376;50.932;4.442;2022-11-24T08:18:35;8.20;99.90
22418;DHT22;11376;50.932;4.442;2022-11-24T08:21:01;8.20;99.90
22418;DHT22;11376;50.932;4.442;2022-11-24T08:23:26;8.30;99.90
22418;DHT22;11376;50.932;4.442;2022-11-24T08:25:52;8.30;99.90
22418;DHT22;11376;50.932;4.442;2022-11-24T08:28:19;8.40;99.90
22418;DHT22;11376;50.932;4.442;2022-11-24T08:30:45;8.40;99.90
22418;DHT22;11376;50.932;4.442;2022-11-24T08:33:11;8.40;99.90
22418;DHT22;11376;50.932;4.442;2022-11-24T08:35:37;8.40;99.90
22418;DHT22;11376;50.932;4.442;2022-11-24T08:38:03;8.50;99.90
22418;DHT22;11376;50.932;4.442;2022-11-24T08:40:29;8.50;99.90
22418;DHT22;11376;50.932;4.442;2022-11-24T08:42:59;8.50;99.90
22418;DHT22;11376;50.932;4.442;2022-11-24T08:45:25;8.60;99.90
22418;DHT22;11376;50.932;4.442;2022-11-24T08:47:55;8.60;99.90
22418;DHT22;11376;50.932;4.442;2022-11-24T08:50:23;8.70;99.90
22418;DHT22;11376;50.932;4.442;2022-11-24T08:52:51;8.70;99.90
22418;DHT22;11376;50.932;4.442;2022-11-24T08:55:17;8.80;99.90
22418;DHT22;11376;50.932;4.442;2022-11-24T08:57:42;8.80;99.90
22418;DHT22;11376;50.932;4.442;2022-11-24T09:00:08;8.80;99.90
22418;DHT22;11376;50.932;4.442;2022-11-24T09:02:34;8.90;99.90
22418;DHT22;11376;50.932;4.442;2022-11-24T09:05:00;8.90;99.90
22418;DHT22;11376;50.932;4.442;2022-11-24T09:07:25;9.00;99.90
22418;DHT22;11376;50.932;4.442;2022-11-24T09:09:51;9.10;99.90
22418;DHT22;11376;50.932;4.442;2022-11-24T09:12:17;9.10;99.90
22418;DHT22;11376;50.932;4.442;2022-11-24T09:14:42;9.20;99.90
22418;DHT22;11376;50.932;4.442;2022-11-24T09:17:08;9.30;99.90
22418;DHT22;11376;50.932;4.442;2022-11-24T09:19:33;9.30;99.90
22418;DHT22;11376;50.932;4.442;2022-11-24T09:21:59;9.40;99.90
22418;DHT22;11376;50.932;4.442;2022-11-24T09:24:25;9.40;99.90
22418;DHT22;11376;50.932;4.442;2022-11-24T09:26:52;9.50;99.90
22418;DHT22;11376;50.932;4.442;2022-11-24T09:29:19;9.60;99.90
22418;DHT22;11376;50.932;4.442;2022-11-24T09:31:45;9.60;99.90
22418;DHT22;11376;50.932;4.442;2022-11-24T09:34:12;9.70;99.90
22418;DHT22;11376;50.932;4.442;2022-11-24T09:36:39;9.80;99.90
22418;DHT22;11376;50.932;4.442;2022-11-24T09:39:04;9.90;99.90
22418;DHT22;11376;50.932;4.442;2022-11-24T09:47:37;10.30;99.90
22418;DHT22;11376;50.932;4.442;2022-11-24T09:57:49;10.80;99.90
22418;DHT22;11376;50.932;4.442;2022-11-24T10:00:16;11.20;99.90
22418;DHT22;11376;50.932;4.442;2022-11-24T10:02:43;11.60;99.90
22418;DHT22;11376;50.932;4.442;2022-11-24T10:05:11;11.70;99.90
22418;DHT22;11376;50.932;4.442;2022-11-24T10:07:47;12.20;99.90
22418;DHT22;11376;50.932;4.442;2022-11-24T10:10:22;12.60;99.90
22418;DHT22;11376;50.932;4.442;2022-11-24T10:13:14;12.40;99.90
22418;DHT22;11376;50.932;4.442;2022-11-24T10:16:11;12.60;99.90
22418;DHT22;11376;50.932;4.442;2022-11-24T10:27:21;13.60;99.90
22418;DHT22;11376;50.932;4.442;2022-11-24T10:29:53;14.30;99.90
22418;DHT22;11376;50.932;4.442;2022-11-24T10:34:48;14.70;99.90
22418;DHT22;11376;50.932;4.442;2022-11-24T10:37:20;14.70;99.90
22418;DHT22;11376;50.932;4.442;2022-11-24T10:40:01;15.30;99.90
22418;DHT22;11376;50.932;4.442;2022-11-24T10:42:30;15.80;99.90
22418;DHT22;11376;50.932;4.442;2022-11-24T10:45:10;14.10;99.90
22418;DHT22;11376;50.932;4.442;2022-11-24T10:47:36;14.20;99.90
22418;DHT22;11376;50.932;4.442;2022-11-24T10:50:20;14.90;99.90
22418;DHT22;11376;50.932;4.442;2022-11-24T10:52:55;14.90;99.90
22418;DHT22;11376;50.932;4.442;2022-11-24T10:55:22;14.70;99.90
22418;DHT22;11376;50.932;4.442;2022-11-24T10:57:48;14.60;99.90
22418;DHT22;11376;50.932;4.442;2022-11-24T11:02:47;13.50;99.90
22418;DHT22;11376;50.932;4.442;2022-11-24T11:08:20;14.70;99.90
22418;DHT22;11376;50.932;4.442;2022-11-24T11:10:48;14.60;99.90
22418;DHT22;11376;50.932;4.442;2022-11-24T11:13:29;14.60;99.90
22418;DHT22;11376;50.932;4.442;2022-11-24T11:15:57;15.20;99.90
22418;DHT22;11376;50.932;4.442;2022-11-24T11:18:31;14.80;99.90
22418;DHT22;11376;50.932;4.442;2022-11-24T11:20:59;15.00;99.90
22418;DHT22;11376;50.932;4.442;2022-11-24T11:23:31;15.00;99.90
22418;DHT22;11376;50.932;4.442;2022-11-24T11:29:15;14.70;99.90
22418;DHT22;11376;50.932;4.442;2022-11-24T11:31:41;13.70;99.90
22418;DHT22;11376;50.932;4.442;2022-11-24T11:34:19;13.10;99.90
22418;DHT22;11376;50.932;4.442;2022-11-24T11:36:49;13.20;99.90
22418;DHT22;11376;50.932;4.442;2022-11-24T11:39:35;14.10;99.90
22418;DHT22;11376;50.932;4.442;2022-11-24T11:44:46;15.60;99.90
22418;DHT22;11376;50.932;4.442;2022-11-24T11:47:19;15.30;99.90
22418;DHT22;11376;50.932;4.442;2022-11-24T11:49:47;15.10;99.90
22418;DHT22;11376;50.932;4.442;2022-11-24T12:00:26;15.60;99.90
22418;DHT22;11376;50.932;4.442;2022-11-24T12:03:18;16.70;99.90
22418;DHT22;11376;50.932;4.442;2022-11-24T12:06:26;16.80;99.90
22418;DHT22;11376;50.932;4.442;2022-11-24T12:23:27;15.30;99.90
22418;DHT22;11376;50.932;4.442;2022-11-24T12:29:43;14.00;99.90
22418;DHT22;11376;50.932;4.442;2022-11-24T12:32:10;13.80;99.90
22418;DHT22;11376;50.932;4.442;2022-11-24T12:41:24;14.60;99.90
22418;DHT22;11376;50.932;4.442;2022-11-24T12:43:57;14.90;99.90
22418;DHT22;11376;50.932;4.442;2022-11-24T12:46:58;15.00;99.90
22418;DHT22;11376;50.932;4.442;2022-11-24T12:52:04;16.40;99.90
22418;DHT22;11376;50.932;4.442;2022-11-24T12:54:37;16.60;99.90
22418;DHT22;11376;50.932;4.442;2022-11-24T12:57:08;17.00;99.90
22418;DHT22;11376;50.932;4.442;2022-11-24T13:08:02;17.30;99.90
22418;DHT22;11376;50.932;4.442;2022-11-24T13:13:09;17.90;99.90
22418;DHT22;11376;50.932;4.442;2022-11-24T13:39:59;16.60;99.90
22418;DHT22;11376;50.932;4.442;2022-11-24T13:42:25;16.40;99.90
22418;DHT22;11376;50.932;4.442;2022-11-24T13:44:56;15.40;99.90
22418;DHT22;11376;50.932;4.442;2022-11-24T13:47:38;14.40;99.90
22418;DHT22;11376;50.932;4.442;2022-11-24T13:52:45;14.00;99.90
22418;DHT22;11376;50.932;4.442;2022-11-24T13:58:19;13.40;99.90
22418;DHT22;11376;50.932;4.442;2022-11-24T14:00:33;13.10;99.90
22418;DHT22;11376;50.932;4.442;2022-11-24T14:03:03;12.90;99.90
22418;DHT22;11376;50.932;4.442;2022-11-24T14:05:39;13.10;99.90
22418;DHT22;11376;50.932;4.442;2022-11-24T14:08:17;13.00;99.90
22418;DHT22;11376;50.932;4.442;2022-11-24T14:10:43;13.10;99.90
22418;DHT22;11376;50.932;4.442;2022-11-24T14:18:38;13.10;99.90
22418;DHT22;11376;50.932;4.442;2022-11-24T14:23:48;13.10;99.90
22418;DHT22;11376;50.932;4.442;2022-11-24T14:26:44;13.20;99.90
22418;DHT22;11376;50.932;4.442;2022-11-24T14:34:19;12.70;99.90
22418;DHT22;11376;50.932;4.442;2022-11-24T14:36:46;12.60;99.90
22418;DHT22;11376;50.932;4.442;2022-11-24T14:39:19;12.50;99.90
22418;DHT22;11376;50.932;4.442;2022-11-24T14:42:00;12.30;99.90
22418;DHT22;11376;50.932;4.442;2022-11-24T14:47:06;12.40;99.90
22418;DHT22;11376;50.932;4.442;2022-11-24T14:49:39;12.50;99.90
22418;DHT22;11376;50.932;4.442;2022-11-24T14:52:14;12.50;99.90
22418;DHT22;11376;50.932;4.442;2022-11-24T14:54:52;12.30;99.90
22418;DHT22;11376;50.932;4.442;2022-11-24T14:57:32;12.20;99.90
22418;DHT22;11376;50.932;4.442;2022-11-24T15:05:23;11.80;99.90
22418;DHT22;11376;50.932;4.442;2022-11-24T15:07:58;11.80;99.90
22418;DHT22;11376;50.932;4.442;2022-11-24T15:10:32;11.80;99.90
22418;DHT22;11376;50.932;4.442;2022-11-24T15:13:00;11.70;99.90
22418;DHT22;11376;50.932;4.442;2022-11-24T15:15:37;11.60;99.90
22418;DHT22;11376;50.932;4.442;2022-11-24T15:18:04;11.60;99.90
22418;DHT22;11376;50.932;4.442;2022-11-24T15:20:44;11.50;99.90
22418;DHT22;11376;50.932;4.442;2022-11-24T15:23:26;11.50;99.90
22418;DHT22;11376;50.932;4.442;2022-11-24T15:25:53;11.50;99.90
22418;DHT22;11376;50.932;4.442;2022-11-24T15:28:19;11.40;99.90
22418;DHT22;11376;50.932;4.442;2022-11-24T15:30:50;11.40;99.90
22418;DHT22;11376;50.932;4.442;2022-11-24T15:33:17;11.40;99.90
22418;DHT22;11376;50.932;4.442;2022-11-24T15:35:44;11.30;99.90
22418;DHT22;11376;50.932;4.442;2022-11-24T15:38:10;11.30;99.90
22418;DHT22;11376;50.932;4.442;2022-11-24T15:40:39;11.20;99.90
22418;DHT22;11376;50.932;4.442;2022-11-24T15:43:30;11.20;99.90
22418;DHT22;11376;50.932;4.442;2022-11-24T15:45:57;11.10;99.90
22418;DHT22;11376;50.932;4.442;2022-11-24T15:48:23;11.10;99.90
22418;DHT22;11376;50.932;4.442;2022-11-24T15:50:49;11.00;99.90
22418;DHT22;11376;50.932;4.442;2022-11-24T15:53:21;11.00;99.90
22418;DHT22;11376;50.932;4.442;2022-11-24T15:55:48;10.90;99.90
22418;DHT22;11376;50.932;4.442;2022-11-24T15:58:15;10.90;99.90
22418;DHT22;11376;50.932;4.442;2022-11-24T16:00:42;10.80;99.90
22418;DHT22;11376;50.932;4.442;2022-11-24T16:03:08;10.80;99.90
22418;DHT22;11376;50.932;4.442;2022-11-24T16:05:35;10.70;99.90
22418;DHT22;11376;50.932;4.442;2022-11-24T16:08:01;10.70;99.90
22418;DHT22;11376;50.932;4.442;2022-11-24T16:10:32;10.60;99.90
22418;DHT22;11376;50.932;4.442;2022-11-24T16:12:59;10.60;99.90
22418;DHT22;11376;50.932;4.442;2022-11-24T16:15:24;10.50;99.90
22418;DHT22;11376;50.932;4.442;2022-11-24T16:17:50;10.50;99.90
22418;DHT22;11376;50.932;4.442;2022-11-24T16:20:16;10.50;99.90
22418;DHT22;11376;50.932;4.442;2022-11-24T16:22:42;10.40;99.90
22418;DHT22;11376;50.932;4.442;2022-11-24T16:25:08;10.40;99.90
22418;DHT22;11376;50.932;4.442;2022-11-24T16:27:34;10.30;99.90
22418;DHT22;11376;50.932;4.442;2022-11-24T16:29:59;10.30;99.90
22418;DHT22;11376;50.932;4.442;2022-11-24T16:32:26;10.30;99.90
22418;DHT22;11376;50.932;4.442;2022-11-24T16:34:52;10.20;99.90
22418;DHT22;11376;50.932;4.442;2022-11-24T16:37:18;10.20;99.90
22418;DHT22;11376;50.932;4.442;2022-11-24T16:39:46;10.20;99.90
22418;DHT22;11376;50.932;4.442;2022-11-24T16:42:12;10.10;99.90
22418;DHT22;11376;50.932;4.442;2022-11-24T16:44:37;10.10;99.90
22418;DHT22;11376;50.932;4.442;2022-11-24T16:47:03;10.10;99.90
22418;DHT22;11376;50.932;4.442;2022-11-24T16:49:28;10.10;99.90
22418;DHT22;11376;50.932;4.442;2022-11-24T16:51:54;10.10;99.90
22418;DHT22;11376;50.932;4.442;2022-11-24T16:54:20;10.10;99.90
22418;DHT22;11376;50.932;4.442;2022-11-24T16:56:45;10.00;99.90
22418;DHT22;11376;50.932;4.442;2022-11-24T16:59:11;10.10;99.90
22418;DHT22;11376;50.932;4.442;2022-11-24T17:01:37;10.00;99.90
22418;DHT22;11376;50.932;4.442;2022-11-24T17:04:07;10.00;99.90
22418;DHT22;11376;50.932;4.442;2022-11-24T17:06:33;10.00;99.90
22418;DHT22;11376;50.932;4.442;2022-11-24T17:08:59;10.00;99.90
22418;DHT22;11376;50.932;4.442;2022-11-24T17:11:26;9.90;99.90
22418;DHT22;11376;50.932;4.442;2022-11-24T17:13:52;9.80;99.90
22418;DHT22;11376;50.932;4.442;2022-11-24T17:16:19;9.90;99.90
22418;DHT22;11376;50.932;4.442;2022-11-24T17:18:46;9.90;99.90
22418;DHT22;11376;50.932;4.442;2022-11-24T17:21:14;9.90;99.90
22418;DHT22;11376;50.932;4.442;2022-11-24T17:23:40;9.90;99.90
22418;DHT22;11376;50.932;4.442;2022-11-24T17:26:09;9.90;99.90
22418;DHT22;11376;50.932;4.442;2022-11-24T17:28:36;9.90;99.90
22418;DHT22;11376;50.932;4.442;2022-11-24T17:31:13;9.90;99.90
22418;DHT22;11376;50.932;4.442;2022-11-24T17:33:39;9.90;99.90
22418;DHT22;11376;50.932;4.442;2022-11-24T17:36:05;9.90;99.90
22418;DHT22;11376;50.932;4.442;2022-11-24T17:38:31;9.90;99.90
22418;DHT22;11376;50.932;4.442;2022-11-24T17:40:57;9.90;99.90
22418;DHT22;11376;50.932;4.442;2022-11-24T17:43:23;9.80;99.90
22418;DHT22;11376;50.932;4.442;2022-11-24T17:45:57;9.80;99.90
22418;DHT22;11376;50.932;4.442;2022-11-24T17:48:24;9.80;99.90
22418;DHT22;11376;50.932;4.442;2022-11-24T17:51:03;9.80;99.90
22418;DHT22;11376;50.932;4.442;2022-11-24T17:53:29;9.70;99.90
22418;DHT22;11376;50.932;4.442;2022-11-24T17:55:59;9.70;99.90
22418;DHT22;11376;50.932;4.442;2022-11-24T17:58:30;9.70;99.90
22418;DHT22;11376;50.932;4.442;2022-11-24T18:00:56;9.70;99.90
22418;DHT22;11376;50.932;4.442;2022-11-24T18:03:22;9.70;99.90